Time;durP1;ratioP1;P1;durP2;ratioP2;P2;SDS_P1;SDS_P2;PMS_P1;PMS_P2;Temp;Humidity;BMP_temperature;BMP_pressure;BME280_temperature;BME280_humidity;BME280_pressure;Samples;Min_cycle;Max_cycle;Signal;HPM_P1;HPM_P2
2022/01/25 00:26:25;;;;;;;28.45;15.57;;;;;;;;;;4987895;28;20045;-84
2022/01/25 00:29:04;;;;;;;33.50;14.65;;;;;;;;;;4988810;28;20066;-84
2022/01/25 00:31:31;;;;;;;33.03;15.80;;;;;;;;;;4990612;28;20061;-83
2022/01/25 00:33:58;;;;;;;32.80;16.25;;;;;;;;;;4990355;28;20034;-83
2022/01/25 00:36:25;;;;;;;35.63;15.98;;;;;;;;;;4990714;28;20391;-84
2022/01/25 00:38:51;;;;;;;30.08;15.05;;;;;;;;;;4991013;28;20030;-84
2022/01/25 00:41:18;;;;;;;23.30;11.30;;;;;;;;;;4991430;28;20486;-83
2022/01/25 00:43:44;;;;;;;22.65;12.35;;;;;;;;;;5000736;28;20038;-83
2022/01/25 00:46:12;;;;;;;23.98;12.93;;;;;;;;;;4992221;28;20019;-83
2022/01/25 00:56:19;;;;;;;28.85;13.75;;;;;;;;;;4990758;28;20109;-84
2022/01/25 00:58:45;;;;;;;26.83;12.77;;;;;;;;;;4992398;28;20113;-83
2022/01/25 01:01:11;;;;;;;28.25;14.40;;;;;;;;;;4990310;28;20034;-83
2022/01/25 01:03:37;;;;;;;28.75;14.32;;;;;;;;;;4990088;28;20030;-83
2022/01/25 01:06:05;;;;;;;33.45;15.23;;;;;;;;;;4988357;28;20553;-84
2022/01/25 01:08:31;;;;;;;21.63;11.35;;;;;;;;;;4989971;28;20042;-84
2022/01/25 01:10:59;;;;;;;22.98;11.48;;;;;;;;;;4989775;28;20030;-84
2022/01/25 01:38:19;;;;;;;31.98;16.02;;;;;;;;;;4990738;28;20026;-83
2022/01/25 01:43:29;;;;;;;30.77;14.68;;;;;;;;;;4990943;28;20049;-83
2022/01/25 01:48:33;;;;;;;27.60;14.13;;;;;;;;;;4990003;28;20053;-84
2022/01/25 01:51:15;;;;;;;27.40;13.30;;;;;;;;;;4986136;28;20014;-82
2022/01/25 01:53:41;;;;;;;32.20;13.25;;;;;;;;;;4988564;28;20035;-83
2022/01/25 01:56:07;;;;;;;32.33;15.25;;;;;;;;;;4989343;28;20088;-83
2022/01/25 01:58:37;;;;;;;34.10;15.80;;;;;;;;;;4993500;28;20396;-83
2022/01/25 02:01:06;;;;;;;38.70;15.93;;;;;;;;;;4988821;28;20388;-83
2022/01/25 02:03:32;;;;;;;32.95;14.27;;;;;;;;;;4988712;28;20096;-83
2022/01/25 02:05:58;;;;;;;21.67;11.30;;;;;;;;;;4984560;28;20109;-83
2022/01/25 02:08:24;;;;;;;25.98;11.07;;;;;;;;;;4988764;28;20522;-83
2022/01/25 02:10:50;;;;;;;26.63;11.63;;;;;;;;;;4990987;28;20038;-83
2022/01/25 02:13:16;;;;;;;26.45;12.57;;;;;;;;;;4990745;28;20090;-84
2022/01/25 02:15:46;;;;;;;25.33;11.85;;;;;;;;;;4988684;28;20042;-83
2022/01/25 02:23:36;;;;;;;32.70;14.75;;;;;;;;;;4989748;28;20507;-83
2022/01/25 02:26:04;;;;;;;28.23;12.10;;;;;;;;;;4988522;28;20113;-84
2022/01/25 02:28:32;;;;;;;28.60;13.02;;;;;;;;;;4989957;28;20038;-83
2022/01/25 02:30:59;;;;;;;25.58;13.35;;;;;;;;;;4988195;28;20395;-84
2022/01/25 02:33:25;;;;;;;34.67;13.48;;;;;;;;;;4989753;28;20034;-83
2022/01/25 02:35:51;;;;;;;28.17;13.32;;;;;;;;;;4988374;28;20027;-83
2022/01/25 02:38:24;;;;;;;29.05;13.90;;;;;;;;;;4988814;28;20018;-83
2022/01/25 02:40:50;;;;;;;26.30;12.65;;;;;;;;;;4988754;28;20027;-83
2022/01/25 02:43:19;;;;;;;32.25;14.20;;;;;;;;;;4988426;28;20031;-84
2022/01/25 02:45:49;;;;;;;25.85;12.27;;;;;;;;;;4988767;28;20027;-84
2022/01/25 02:48:30;;;;;;;30.45;13.70;;;;;;;;;;4985228;28;20125;-84
2022/01/25 02:50:57;;;;;;;26.48;13.70;;;;;;;;;;4985927;28;20022;-84
2022/01/25 02:53:23;;;;;;;28.52;13.50;;;;;;;;;;5003214;28;20030;-83
2022/01/25 02:55:49;;;;;;;26.73;12.88;;;;;;;;;;4989211;28;20034;-84
2022/01/25 02:58:15;;;;;;;33.88;14.40;;;;;;;;;;4988328;28;20040;-84
2022/01/25 03:00:41;;;;;;;32.83;14.32;;;;;;;;;;4987249;28;20379;-83
2022/01/25 03:03:07;;;;;;;29.67;13.45;;;;;;;;;;4987517;28;20397;-84
2022/01/25 03:05:33;;;;;;;25.70;12.63;;;;;;;;;;4990000;28;20034;-84
2022/01/25 03:07:59;;;;;;;22.98;12.52;;;;;;;;;;4990341;28;20038;-84
2022/01/25 03:10:34;;;;;;;27.67;14.05;;;;;;;;;;4990889;28;20093;-84
2022/01/25 03:13:00;;;;;;;30.17;14.38;;;;;;;;;;5008109;28;20042;-84
2022/01/25 03:15:42;;;;;;;26.58;13.48;;;;;;;;;;4987827;28;20519;-83
2022/01/25 03:18:23;;;;;;;31.20;13.18;;;;;;;;;;4986871;28;20032;-83
2022/01/25 03:20:57;;;;;;;26.60;13.98;;;;;;;;;;4985612;28;20388;-83
2022/01/25 03:23:23;;;;;;;29.30;11.93;;;;;;;;;;4988215;28;20029;-85
2022/01/25 03:25:49;;;;;;;30.15;14.18;;;;;;;;;;4989288;28;20113;-84
2022/01/25 03:28:16;;;;;;;34.75;14.23;;;;;;;;;;4988287;28;20423;-84
2022/01/25 03:30:42;;;;;;;27.80;13.07;;;;;;;;;;4987142;28;20026;-84
2022/01/25 03:33:08;;;;;;;25.60;12.85;;;;;;;;;;4988428;28;20030;-85
2022/01/25 03:35:34;;;;;;;25.90;12.68;;;;;;;;;;4988052;28;20376;-84
2022/01/25 03:38:00;;;;;;;26.23;12.68;;;;;;;;;;4988264;28;20090;-84
2022/01/25 03:40:26;;;;;;;27.20;12.77;;;;;;;;;;4988635;28;20070;-85
2022/01/25 03:42:54;;;;;;;24.00;11.70;;;;;;;;;;4987616;28;20364;-84
2022/01/25 03:45:22;;;;;;;26.17;12.23;;;;;;;;;;4987504;28;20030;-84
2022/01/25 03:49:47;;;;;;;26.63;12.57;;;;;;;;;;4986922;28;20043;-84
2022/01/25 03:50:45;;;;;;;32.15;13.93;;;;;;;;;;4988560;28;20582;-85
2022/01/25 03:53:12;;;;;;;30.98;13.05;;;;;;;;;;4987298;28;20383;-84
2022/01/25 03:55:38;;;;;;;27.30;13.23;;;;;;;;;;4986459;28;20038;-85
2022/01/25 03:58:04;;;;;;;31.70;14.20;;;;;;;;;;4987490;28;20502;-84
2022/01/25 04:00:31;;;;;;;30.30;15.48;;;;;;;;;;4985911;28;20088;-85
2022/01/25 04:03:05;;;;;;;34.80;15.70;;;;;;;;;;4980986;28;20034;-84
2022/01/25 04:08:09;;;;;;;33.97;15.10;;;;;;;;;;4982716;28;20483;-84
2022/01/25 04:10:35;;;;;;;33.08;15.45;;;;;;;;;;4992971;28;20057;-84
2022/01/25 04:13:01;;;;;;;34.85;16.08;;;;;;;;;;4987014;28;20057;-84
2022/01/25 04:15:28;;;;;;;29.38;15.60;;;;;;;;;;4991722;28;20030;-84
2022/01/25 04:18:21;;;;;;;33.50;15.57;;;;;;;;;;4990272;28;20061;-85
2022/01/25 04:21:04;;;;;;;28.55;15.02;;;;;;;;;;4988183;28;20030;-84
2022/01/25 04:26:14;;;;;;;32.83;15.73;;;;;;;;;;4987357;28;20041;-85
2022/01/25 04:28:40;;;;;;;30.27;15.38;;;;;;;;;;4992200;28;20043;-85
2022/01/25 04:31:07;;;;;;;28.25;14.95;;;;;;;;;;4991829;28;20034;-86
2022/01/25 04:33:43;;;;;;;27.13;13.73;;;;;;;;;;4989943;28;20399;-85
2022/01/25 04:49:36;;;;;;;30.23;14.57;;;;;;;;;;4987677;28;20053;-85
2022/01/25 04:52:09;;;;;;;31.70;15.77;;;;;;;;;;4994173;28;20117;-84
2022/01/25 04:54:54;;;;;;;34.50;15.50;;;;;;;;;;4985193;28;20049;-84
2022/01/25 04:59:57;;;;;;;27.90;14.25;;;;;;;;;;4991075;28;20304;-85
2022/01/25 05:05:17;;;;;;;29.40;14.65;;;;;;;;;;4992038;28;20046;-83
2022/01/25 05:07:54;;;;;;;24.50;13.75;;;;;;;;;;4987609;28;20031;-84
2022/01/25 05:10:20;;;;;;;28.00;11.98;;;;;;;;;;4989835;28;20026;-83
2022/01/25 05:12:53;;;;;;;24.83;12.27;;;;;;;;;;4991312;28;20090;-84
2022/01/25 05:15:48;;;;;;;26.60;14.23;;;;;;;;;;4991727;28;20129;-84
2022/01/25 05:18:24;;;;;;;30.17;14.38;;;;;;;;;;4990474;28;20057;-84
2022/01/25 05:23:45;;;;;;;22.48;12.63;;;;;;;;;;4936852;28;20358;-85
2022/01/25 05:26:11;;;;;;;26.92;13.35;;;;;;;;;;4986686;28;20538;-84
2022/01/25 05:28:37;;;;;;;26.58;12.63;;;;;;;;;;4992713;28;20129;-84
2022/01/25 05:31:04;;;;;;;24.52;12.55;;;;;;;;;;4989342;28;20414;-83
2022/01/25 05:33:30;;;;;;;25.73;12.65;;;;;;;;;;4989692;28;20030;-83
2022/01/25 05:35:57;;;;;;;23.65;12.35;;;;;;;;;;4989437;28;20030;-84
2022/01/25 05:38:23;;;;;;;23.15;13.02;;;;;;;;;;4989384;28;20423;-84
2022/01/25 05:40:58;;;;;;;27.95;13.02;;;;;;;;;;4991635;28;20097;-84
2022/01/25 05:46:17;;;;;;;22.52;12.15;;;;;;;;;;4991625;28;20037;-84
2022/01/25 05:48:44;;;;;;;22.48;12.05;;;;;;;;;;4989862;28;20042;-83
2022/01/25 05:51:11;;;;;;;26.42;12.80;;;;;;;;;;4990849;28;20026;-83
2022/01/25 05:53:37;;;;;;;27.40;13.13;;;;;;;;;;4989656;28;20177;-83
2022/01/25 05:56:04;;;;;;;20.63;10.07;;;;;;;;;;4989432;28;20038;-85
2022/01/25 05:58:30;;;;;;;25.33;12.82;;;;;;;;;;5000237;28;20030;-84
2022/01/25 06:00:56;;;;;;;30.67;14.93;;;;;;;;;;4991190;28;20431;-84
2022/01/25 06:03:22;;;;;;;26.88;13.70;;;;;;;;;;4988244;28;20038;-84
2022/01/25 06:05:48;;;;;;;23.23;11.95;;;;;;;;;;4988875;28;20030;-84
2022/01/25 06:08:14;;;;;;;25.10;12.30;;;;;;;;;;4988805;28;20510;-84
2022/01/25 06:10:40;;;;;;;24.70;12.70;;;;;;;;;;4993147;28;20026;-84
2022/01/25 06:13:06;;;;;;;25.88;13.68;;;;;;;;;;4990958;28;20116;-84
2022/01/25 06:15:32;;;;;;;31.55;14.50;;;;;;;;;;4989106;28;20463;-83
2022/01/25 06:17:58;;;;;;;35.85;17.52;;;;;;;;;;4990636;28;20034;-84
2022/01/25 06:20:24;;;;;;;36.45;18.20;;;;;;;;;;4988738;28;20053;-84
2022/01/25 06:22:50;;;;;;;32.25;16.38;;;;;;;;;;4989938;28;20053;-85
2022/01/25 06:25:17;;;;;;;38.40;16.17;;;;;;;;;;4990945;28;20029;-84
2022/01/25 06:27:43;;;;;;;31.80;15.40;;;;;;;;;;4982615;28;20042;-84
2022/01/25 06:30:13;;;;;;;36.65;16.42;;;;;;;;;;4988230;28;20032;-84
2022/01/25 06:32:39;;;;;;;29.73;15.70;;;;;;;;;;4988518;28;20069;-84
2022/01/25 06:35:05;;;;;;;37.67;18.25;;;;;;;;;;4987822;28;20027;-85
2022/01/25 06:37:31;;;;;;;32.08;16.75;;;;;;;;;;4990525;28;20022;-84
2022/01/25 06:39:58;;;;;;;37.55;18.58;;;;;;;;;;4989509;28;20156;-84
2022/01/25 06:42:27;;;;;;;40.28;18.80;;;;;;;;;;4988299;28;20034;-84
2022/01/25 06:44:56;;;;;;;33.58;17.67;;;;;;;;;;4990137;28;20037;-84
2022/01/25 06:47:22;;;;;;;40.55;18.35;;;;;;;;;;4987079;28;20030;-83
2022/01/25 06:49:49;;;;;;;32.25;16.75;;;;;;;;;;4989046;28;20082;-84
2022/01/25 06:52:15;;;;;;;34.25;17.33;;;;;;;;;;4990945;28;20061;-84
2022/01/25 06:54:41;;;;;;;25.48;14.15;;;;;;;;;;4988848;28;20393;-84
2022/01/25 06:57:08;;;;;;;31.92;14.73;;;;;;;;;;4985479;28;20034;-84
2022/01/25 06:59:34;;;;;;;25.98;13.32;;;;;;;;;;4986447;28;20052;-83
2022/01/25 07:02:00;;;;;;;28.20;14.05;;;;;;;;;;4989637;28;20387;-83
2022/01/25 07:04:26;;;;;;;29.20;13.73;;;;;;;;;;4989893;28;20030;-84
2022/01/25 07:06:52;;;;;;;27.52;14.30;;;;;;;;;;4986694;28;20364;-83
2022/01/25 07:09:18;;;;;;;30.42;13.60;;;;;;;;;;4987423;28;20045;-83
2022/01/25 07:11:44;;;;;;;27.50;13.90;;;;;;;;;;4987493;28;20057;-83
2022/01/25 07:14:10;;;;;;;27.67;12.98;;;;;;;;;;4986914;28;20105;-83
2022/01/25 07:16:36;;;;;;;26.73;13.98;;;;;;;;;;4990209;28;20431;-83
2022/01/25 07:19:02;;;;;;;26.33;12.88;;;;;;;;;;4988097;28;20030;-84
2022/01/25 07:21:28;;;;;;;24.98;12.68;;;;;;;;;;4986380;28;20030;-83
2022/01/25 07:23:54;;;;;;;20.45;12.13;;;;;;;;;;4987634;28;20078;-83
2022/01/25 07:26:20;;;;;;;21.13;12.43;;;;;;;;;;4988258;28;20050;-84
2022/01/25 07:28:47;;;;;;;22.88;11.82;;;;;;;;;;4990056;28;20034;-85
2022/01/25 07:31:13;;;;;;;25.90;12.60;;;;;;;;;;4989674;28;20027;-84
2022/01/25 07:33:39;;;;;;;20.65;11.27;;;;;;;;;;4987949;28;20027;-84
2022/01/25 07:36:06;;;;;;;23.30;11.43;;;;;;;;;;4987246;28;20046;-83
2022/01/25 07:38:32;;;;;;;22.90;11.40;;;;;;;;;;4987375;28;20479;-84
2022/01/25 07:40:59;;;;;;;22.98;11.25;;;;;;;;;;4989788;28;20353;-84
2022/01/25 07:43:25;;;;;;;21.48;10.77;;;;;;;;;;4992095;28;20038;-85
2022/01/25 07:45:53;;;;;;;22.83;11.40;;;;;;;;;;4991697;28;20487;-86
2022/01/25 07:48:20;;;;;;;21.73;11.27;;;;;;;;;;4991246;28;20042;-83
2022/01/25 07:50:46;;;;;;;21.20;11.30;;;;;;;;;;4991097;28;20027;-83
2022/01/25 07:53:12;;;;;;;21.58;11.52;;;;;;;;;;4990028;28;20121;-84
2022/01/25 07:55:38;;;;;;;26.77;13.05;;;;;;;;;;4994625;28;20053;-85
2022/01/25 07:58:05;;;;;;;23.08;11.98;;;;;;;;;;4991627;28;20034;-85
2022/01/25 08:00:31;;;;;;;23.63;12.35;;;;;;;;;;4990095;28;20387;-85
2022/01/25 08:02:57;;;;;;;22.70;13.15;;;;;;;;;;4989539;28;20031;-85
2022/01/25 08:05:25;;;;;;;22.10;12.52;;;;;;;;;;4990900;28;20023;-86
2022/01/25 08:07:51;;;;;;;23.33;13.45;;;;;;;;;;4993244;28;20434;-85
2022/01/25 08:10:18;;;;;;;29.45;12.93;;;;;;;;;;4993027;28;20026;-85
2022/01/25 08:12:44;;;;;;;23.73;12.70;;;;;;;;;;4990209;28;20520;-85
2022/01/25 08:15:11;;;;;;;21.15;11.65;;;;;;;;;;4989434;28;20029;-85
2022/01/25 08:17:37;;;;;;;24.42;12.25;;;;;;;;;;4990997;28;20072;-84
2022/01/25 08:20:03;;;;;;;25.40;13.10;;;;;;;;;;4990827;28;20109;-85
2022/01/25 08:22:29;;;;;;;24.02;13.63;;;;;;;;;;4991443;28;20030;-85
2022/01/25 08:24:55;;;;;;;26.30;12.88;;;;;;;;;;4985010;28;20034;-84
2022/01/25 08:27:23;;;;;;;23.92;12.57;;;;;;;;;;4989170;28;20029;-85
2022/01/25 08:29:52;;;;;;;23.17;12.35;;;;;;;;;;4989335;28;20030;-85
2022/01/25 08:32:18;;;;;;;22.98;12.15;;;;;;;;;;4991079;28;20019;-84
2022/01/25 08:34:44;;;;;;;25.27;13.50;;;;;;;;;;4992873;28;20134;-84
2022/01/25 08:37:10;;;;;;;25.13;13.60;;;;;;;;;;4990986;28;20085;-84
2022/01/25 08:39:36;;;;;;;20.80;12.65;;;;;;;;;;4990624;28;20366;-83
2022/01/25 08:42:03;;;;;;;24.90;13.18;;;;;;;;;;4992462;28;20038;-85
2022/01/25 08:44:29;;;;;;;22.90;12.52;;;;;;;;;;4990845;28;20114;-86
2022/01/25 08:46:55;;;;;;;23.88;12.25;;;;;;;;;;4992774;28;20098;-84
2022/01/25 08:49:21;;;;;;;20.42;11.98;;;;;;;;;;4990107;28;20355;-85
2022/01/25 08:51:50;;;;;;;27.73;13.95;;;;;;;;;;4990291;28;20463;-84
2022/01/25 08:54:17;;;;;;;22.88;12.60;;;;;;;;;;4988546;28;20442;-84
2022/01/25 08:56:43;;;;;;;23.00;13.77;;;;;;;;;;4988447;28;20058;-84
2022/01/25 08:59:10;;;;;;;22.88;14.13;;;;;;;;;;4975166;28;20049;-83
2022/01/25 09:01:36;;;;;;;28.52;16.65;;;;;;;;;;4992279;28;20101;-85
2022/01/25 09:04:03;;;;;;;28.05;14.52;;;;;;;;;;4989084;28;20128;-85
2022/01/25 09:06:29;;;;;;;26.65;14.98;;;;;;;;;;4990823;28;20030;-83
2022/01/25 09:09:02;;;;;;;28.95;15.32;;;;;;;;;;4988945;28;20061;-85
2022/01/25 09:11:28;;;;;;;27.95;15.07;;;;;;;;;;4998303;28;20121;-86
2022/01/25 09:13:54;;;;;;;26.15;14.25;;;;;;;;;;4991032;28;20038;-84
2022/01/25 09:16:20;;;;;;;27.27;14.05;;;;;;;;;;4990463;28;20149;-85
2022/01/25 09:18:46;;;;;;;24.92;14.93;;;;;;;;;;4991928;28;20142;-85
2022/01/25 09:21:12;;;;;;;26.17;14.52;;;;;;;;;;4988049;28;20412;-85
2022/01/25 09:23:38;;;;;;;24.65;14.55;;;;;;;;;;4991986;28;20034;-85
2022/01/25 09:26:04;;;;;;;27.30;14.65;;;;;;;;;;4990125;28;20048;-84
2022/01/25 09:28:30;;;;;;;25.13;13.68;;;;;;;;;;4990583;28;20241;-85
2022/01/25 09:30:57;;;;;;;24.10;13.32;;;;;;;;;;4988323;28;20165;-85
2022/01/25 09:33:24;;;;;;;23.30;13.20;;;;;;;;;;4991240;28;20037;-84
2022/01/25 09:35:51;;;;;;;24.60;13.25;;;;;;;;;;4989168;28;20479;-84
2022/01/25 09:38:17;;;;;;;21.02;11.70;;;;;;;;;;5003979;28;20471;-84
2022/01/25 09:40:43;;;;;;;22.38;12.00;;;;;;;;;;5019869;28;20028;-84
2022/01/25 09:43:09;;;;;;;22.63;12.52;;;;;;;;;;4985102;28;20030;-84
2022/01/25 09:45:36;;;;;;;25.30;12.55;;;;;;;;;;4989565;28;20102;-84
2022/01/25 09:48:03;;;;;;;22.48;12.18;;;;;;;;;;5004172;28;20062;-85
2022/01/25 09:50:29;;;;;;;21.88;12.07;;;;;;;;;;5003616;28;20105;-83
2022/01/25 09:52:55;;;;;;;20.35;12.55;;;;;;;;;;4991211;28;20030;-84
2022/01/25 09:55:22;;;;;;;25.65;12.15;;;;;;;;;;4988812;28;20430;-84
2022/01/25 09:57:49;;;;;;;24.50;14.15;;;;;;;;;;5005323;28;20058;-84
2022/01/25 10:00:16;;;;;;;25.52;14.55;;;;;;;;;;4989319;28;20031;-85
2022/01/25 10:03:11;;;;;;;25.75;14.15;;;;;;;;;;5004991;28;20033;-84
2022/01/25 10:05:38;;;;;;;27.38;15.07;;;;;;;;;;4997965;28;20030;-86
2022/01/25 10:08:07;;;;;;;31.17;16.58;;;;;;;;;;5018558;28;20044;-84
2022/01/25 10:10:34;;;;;;;30.70;15.30;;;;;;;;;;5005559;28;20030;-84
2022/01/25 10:13:07;;;;;;;30.17;16.75;;;;;;;;;;5017853;28;20047;-83
2022/01/25 10:15:34;;;;;;;34.53;17.90;;;;;;;;;;5016881;28;20023;-85
2022/01/25 10:18:00;;;;;;;32.92;17.58;;;;;;;;;;4998281;28;20031;-84
2022/01/25 10:20:28;;;;;;;37.28;20.40;;;;;;;;;;5004738;28;20065;-85
2022/01/25 10:22:57;;;;;;;44.45;22.70;;;;;;;;;;5004171;28;20179;-84
2022/01/25 10:25:43;;;;;;;41.05;21.63;;;;;;;;;;5003634;28;20073;-85
2022/01/25 10:28:13;;;;;;;49.92;24.85;;;;;;;;;;5006173;28;20037;-85
2022/01/25 10:30:39;;;;;;;49.38;25.08;;;;;;;;;;5002466;28;20046;-84
2022/01/25 10:33:17;;;;;;;50.35;25.55;;;;;;;;;;5001917;28;20084;-85
2022/01/25 10:35:43;;;;;;;48.08;25.65;;;;;;;;;;5004833;28;20034;-85
2022/01/25 10:38:19;;;;;;;48.47;25.65;;;;;;;;;;5004963;28;20037;-85
2022/01/25 10:40:53;;;;;;;45.60;26.58;;;;;;;;;;5006897;28;20032;-85
2022/01/25 10:43:20;;;;;;;44.25;24.50;;;;;;;;;;5003951;28;20038;-85
2022/01/25 10:45:46;;;;;;;46.88;24.15;;;;;;;;;;5003066;28;20410;-84
2022/01/25 10:48:14;;;;;;;53.60;26.40;;;;;;;;;;5003502;28;20121;-85
2022/01/25 10:50:42;;;;;;;50.10;26.10;;;;;;;;;;5001845;28;20034;-85
2022/01/25 10:53:16;;;;;;;49.67;26.08;;;;;;;;;;5001919;28;20281;-86
2022/01/25 10:55:47;;;;;;;45.78;25.17;;;;;;;;;;5019476;28;20034;-84
2022/01/25 10:58:13;;;;;;;49.15;25.48;;;;;;;;;;5018770;28;20027;-85
2022/01/25 11:00:42;;;;;;;51.22;25.38;;;;;;;;;;5000676;28;20038;-85
2022/01/25 11:03:08;;;;;;;51.75;26.27;;;;;;;;;;5001827;28;20029;-83
2022/01/25 11:05:36;;;;;;;43.20;21.95;;;;;;;;;;5002816;28;20053;-83
2022/01/25 11:08:13;;;;;;;47.58;26.20;;;;;;;;;;5000096;28;20053;-84
2022/01/25 11:10:46;;;;;;;48.28;25.45;;;;;;;;;;4998035;28;20531;-84
2022/01/25 11:13:23;;;;;;;42.60;23.08;;;;;;;;;;5002587;28;20030;-84
2022/01/25 11:15:49;;;;;;;48.28;24.42;;;;;;;;;;4999935;28;20030;-84
2022/01/25 11:18:15;;;;;;;45.05;24.23;;;;;;;;;;5004350;28;20030;-84
2022/01/25 11:20:41;;;;;;;50.88;25.17;;;;;;;;;;5008467;28;20054;-85
2022/01/25 11:23:07;;;;;;;43.97;24.33;;;;;;;;;;5006650;28;20033;-84
2022/01/25 11:25:33;;;;;;;47.50;24.25;;;;;;;;;;5015753;28;20094;-84
2022/01/25 11:28:00;;;;;;;48.08;23.85;;;;;;;;;;5020613;28;20034;-83
2022/01/25 11:30:26;;;;;;;50.88;25.50;;;;;;;;;;5004601;28;20125;-82
2022/01/25 11:32:53;;;;;;;46.85;25.38;;;;;;;;;;5007357;28;20030;-83
2022/01/25 11:35:20;;;;;;;44.10;24.60;;;;;;;;;;5006195;28;20041;-84
2022/01/25 11:37:47;;;;;;;46.33;23.95;;;;;;;;;;4995529;28;20034;-84
2022/01/25 11:40:30;;;;;;;44.55;24.25;;;;;;;;;;4990707;28;20053;-84
2022/01/25 11:43:01;;;;;;;49.42;26.15;;;;;;;;;;4988088;28;20051;-84
2022/01/25 11:45:28;;;;;;;46.65;25.77;;;;;;;;;;4988427;28;20405;-84
2022/01/25 11:47:55;;;;;;;48.72;25.20;;;;;;;;;;4989068;28;20030;-84
2022/01/25 11:50:25;;;;;;;46.15;24.73;;;;;;;;;;4989029;28;20086;-83
2022/01/25 11:52:52;;;;;;;46.13;22.95;;;;;;;;;;4990194;28;20049;-83
2022/01/25 11:55:33;;;;;;;40.80;22.77;;;;;;;;;;4990976;28;20058;-83
2022/01/25 11:58:03;;;;;;;38.83;22.52;;;;;;;;;;4991343;28;20026;-83
2022/01/25 12:00:55;;;;;;;39.42;22.15;;;;;;;;;;4989924;28;20415;-84
2022/01/25 12:03:30;;;;;;;41.80;22.95;;;;;;;;;;4986528;28;20027;-84
2022/01/25 12:06:13;;;;;;;41.70;22.90;;;;;;;;;;4985747;28;20038;-83
2022/01/25 12:09:09;;;;;;;40.85;22.90;;;;;;;;;;4990744;28;20065;-84
2022/01/25 12:12:00;;;;;;;41.83;23.88;;;;;;;;;;4975477;28;20129;-83
2022/01/25 12:14:49;;;;;;;47.30;24.83;;;;;;;;;;4975401;28;20080;-84
2022/01/25 12:17:15;;;;;;;43.20;25.00;;;;;;;;;;4972333;28;20042;-84
2022/01/25 12:19:45;;;;;;;44.42;24.40;;;;;;;;;;4993959;28;20030;-85
2022/01/25 12:27:47;;;;;;;45.13;23.95;;;;;;;;;;4989290;28;20085;-84
2022/01/25 12:30:17;;;;;;;45.40;23.08;;;;;;;;;;4990591;28;20044;-84
2022/01/25 12:33:03;;;;;;;43.33;22.90;;;;;;;;;;4991733;28;20030;-85
2022/01/25 12:35:37;;;;;;;38.15;21.55;;;;;;;;;;4977458;28;20074;-84
2022/01/25 12:38:04;;;;;;;42.95;22.90;;;;;;;;;;4992398;28;20049;-85
2022/01/25 12:40:32;;;;;;;43.92;23.33;;;;;;;;;;4993270;28;20030;-84
2022/01/25 12:42:58;;;;;;;42.70;23.10;;;;;;;;;;4988498;28;20067;-84
2022/01/25 12:45:25;;;;;;;47.80;23.90;;;;;;;;;;4985473;28;20026;-84
2022/01/25 12:47:55;;;;;;;41.95;22.55;;;;;;;;;;4990636;28;20483;-84
2022/01/25 12:50:21;;;;;;;43.17;23.92;;;;;;;;;;4989621;28;20026;-83
2022/01/25 12:52:48;;;;;;;44.45;23.50;;;;;;;;;;4992943;28;20041;-84
2022/01/25 12:55:15;;;;;;;44.78;21.95;;;;;;;;;;4989414;28;20026;-84
2022/01/25 12:57:50;;;;;;;44.63;23.33;;;;;;;;;;4990200;28;20030;-84
2022/01/25 13:00:17;;;;;;;39.05;21.08;;;;;;;;;;4991174;28;20066;-83
2022/01/25 13:02:43;;;;;;;39.40;21.20;;;;;;;;;;4991752;28;20482;-84
2022/01/25 13:05:15;;;;;;;39.42;21.90;;;;;;;;;;4990588;28;20391;-84
2022/01/25 13:07:41;;;;;;;40.88;20.35;;;;;;;;;;5020916;28;20151;-84
2022/01/25 13:10:10;;;;;;;38.08;20.02;;;;;;;;;;5006790;28;20026;-84
2022/01/25 13:12:47;;;;;;;41.63;21.45;;;;;;;;;;5001170;28;20054;-83
2022/01/25 13:18:14;;;;;;;42.33;22.70;;;;;;;;;;4989801;28;20049;-86
2022/01/25 13:20:43;;;;;;;41.13;21.42;;;;;;;;;;4990986;28;20036;-85
2022/01/25 13:23:09;;;;;;;42.80;21.85;;;;;;;;;;4989179;28;20126;-85
2022/01/25 13:28:21;;;;;;;42.95;23.10;;;;;;;;;;4991778;28;20031;-86
2022/01/25 13:30:49;;;;;;;45.05;23.23;;;;;;;;;;4990392;28;20060;-86
2022/01/25 13:33:17;;;;;;;49.53;24.25;;;;;;;;;;4988933;28;20037;-85
2022/01/25 13:35:48;;;;;;;;;;;;;;;;;;4991263;28;20030;-85
2022/01/25 13:38:21;;;;;;;41.35;21.38;;;;;;;;;;4974940;28;20322;-85
2022/01/25 13:40:53;;;;;;;43.20;20.77;;;;;;;;;;4992179;28;20545;-85
2022/01/25 13:46:07;;;;;;;44.80;22.30;;;;;;;;;;4991992;28;20134;-84
2022/01/25 13:48:34;;;;;;;43.90;23.50;;;;;;;;;;4988020;28;20499;-85
2022/01/25 13:51:01;;;;;;;46.63;23.33;;;;;;;;;;4986900;28;20034;-85
2022/01/25 13:53:28;;;;;;;43.25;23.20;;;;;;;;;;4987862;28;20034;-84
2022/01/25 13:55:55;;;;;;;46.55;23.90;;;;;;;;;;4989923;28;20038;-85
2022/01/25 13:58:32;;;;;;;40.42;21.88;;;;;;;;;;4988486;28;20105;-84
2022/01/25 14:00:59;;;;;;;40.28;21.65;;;;;;;;;;4988160;28;20034;-85
2022/01/25 14:03:26;;;;;;;43.25;21.50;;;;;;;;;;4991484;28;20100;-85
2022/01/25 14:05:53;;;;;;;43.15;21.98;;;;;;;;;;4988938;28;20098;-85
2022/01/25 14:08:31;;;;;;;40.33;20.77;;;;;;;;;;4988109;28;20042;-84
2022/01/25 14:11:00;;;;;;;42.65;21.17;;;;;;;;;;4990616;28;20026;-84
2022/01/25 14:22:12;;;;;;;37.13;19.00;;;;;;;;;;4988763;28;20049;-85
2022/01/25 14:24:38;;;;;;;35.45;18.25;;;;;;;;;;4987046;28;20567;-85
2022/01/25 14:27:18;;;;;;;38.13;19.55;;;;;;;;;;4988041;28;20105;-85
2022/01/25 14:29:44;;;;;;;35.40;18.67;;;;;;;;;;4989026;28;20518;-85
2022/01/25 14:32:10;;;;;;;44.72;21.60;;;;;;;;;;4989192;28;20054;-85
2022/01/25 14:34:36;;;;;;;44.08;21.13;;;;;;;;;;4991206;28;20069;-85
2022/01/25 14:37:02;;;;;;;42.55;20.58;;;;;;;;;;4988649;28;20037;-85
2022/01/25 14:39:28;;;;;;;36.20;19.58;;;;;;;;;;4988054;28;20082;-85
2022/01/25 14:41:55;;;;;;;36.90;20.33;;;;;;;;;;4987829;28;20506;-85
2022/01/25 14:44:24;;;;;;;39.20;20.30;;;;;;;;;;4987284;28;20117;-85
2022/01/25 14:46:52;;;;;;;;;;;;;;;;;;4990839;28;20033;-85
2022/01/25 14:49:31;;;;;;;33.25;16.45;;;;;;;;;;5008977;28;19914;-85
2022/01/25 14:52:01;;;;;;;33.72;17.33;;;;;;;;;;4986974;28;20030;-85
2022/01/25 14:54:27;;;;;;;34.28;17.85;;;;;;;;;;4987935;28;20022;-85
2022/01/25 14:56:56;;;;;;;40.03;19.30;;;;;;;;;;4987383;28;20050;-85
2022/01/25 14:59:29;;;;;;;44.15;23.13;;;;;;;;;;4988351;28;20129;-85
2022/01/25 15:01:58;;;;;;;42.20;23.38;;;;;;;;;;4990846;28;20459;-85
2022/01/25 15:04:24;;;;;;;38.40;22.27;;;;;;;;;;4990039;28;20050;-85
2022/01/25 15:06:51;;;;;;;34.95;19.65;;;;;;;;;;4988011;28;20034;-84
2022/01/25 15:09:17;;;;;;;41.97;22.15;;;;;;;;;;4986086;28;20386;-84
2022/01/25 15:11:44;;;;;;;36.30;20.23;;;;;;;;;;4987931;28;20129;-84
2022/01/25 15:14:18;;;;;;;38.05;19.60;;;;;;;;;;4988741;28;20366;-85
2022/01/25 15:16:44;;;;;;;39.90;22.33;;;;;;;;;;4987465;28;20019;-85
2022/01/25 15:19:11;;;;;;;44.53;20.13;;;;;;;;;;4988549;28;20022;-85
2022/01/25 15:21:37;;;;;;;37.90;20.15;;;;;;;;;;4986831;28;20033;-84
2022/01/25 15:24:03;;;;;;;41.65;21.00;;;;;;;;;;4986317;28;20034;-85
2022/01/25 15:26:34;;;;;;;42.60;21.08;;;;;;;;;;4988155;28;20384;-84
2022/01/25 15:29:01;;;;;;;45.88;23.60;;;;;;;;;;4989962;28;20061;-84
2022/01/25 15:31:28;;;;;;;47.72;23.88;;;;;;;;;;4987982;28;20136;-84
2022/01/25 15:33:54;;;;;;;44.92;23.50;;;;;;;;;;4989456;28;20038;-85
2022/01/25 15:36:21;;;;;;;44.20;20.90;;;;;;;;;;4989016;28;20030;-85
2022/01/25 15:38:48;;;;;;;43.60;20.58;;;;;;;;;;4986768;28;20077;-85
2022/01/25 15:41:14;;;;;;;36.53;20.38;;;;;;;;;;5003722;28;20029;-85
2022/01/25 15:46:27;;;;;;;39.67;19.92;;;;;;;;;;4989285;28;20121;-85
2022/01/25 15:48:55;;;;;;;35.70;19.33;;;;;;;;;;4987100;28;20046;-85
2022/01/25 15:51:21;;;;;;;37.17;18.87;;;;;;;;;;5004666;28;20113;-85
2022/01/25 15:53:47;;;;;;;36.22;19.95;;;;;;;;;;4988542;28;20039;-85
2022/01/25 15:56:15;;;;;;;37.28;19.52;;;;;;;;;;5002816;28;20306;-85
2022/01/25 15:58:41;;;;;;;42.03;23.27;;;;;;;;;;5019329;28;20039;-85
2022/01/25 16:01:10;;;;;;;34.03;17.00;;;;;;;;;;4988850;28;20030;-85
2022/01/25 16:03:36;;;;;;;34.72;17.33;;;;;;;;;;4989564;28;20033;-84
2022/01/25 16:06:02;;;;;;;38.72;20.52;;;;;;;;;;5007250;28;20037;-84
2022/01/25 16:08:28;;;;;;;36.42;20.50;;;;;;;;;;4990946;28;20042;-85
2022/01/25 16:10:54;;;;;;;37.10;20.27;;;;;;;;;;5009635;28;20026;-84
2022/01/25 16:13:20;;;;;;;37.30;19.05;;;;;;;;;;4993737;28;20129;-85
2022/01/25 16:15:46;;;;;;;53.55;28.30;;;;;;;;;;4992774;28;20030;-85
2022/01/25 16:18:12;;;;;;;45.45;25.75;;;;;;;;;;4991448;28;20043;-84
2022/01/25 16:20:39;;;;;;;45.83;24.10;;;;;;;;;;5007563;28;20044;-84
2022/01/25 16:23:06;;;;;;;43.28;22.35;;;;;;;;;;5021686;28;20050;-84
2022/01/25 16:25:33;;;;;;;43.63;21.55;;;;;;;;;;4994061;28;20023;-85
2022/01/25 16:27:59;;;;;;;39.85;20.98;;;;;;;;;;5006957;28;20486;-85
2022/01/25 16:30:25;;;;;;;43.28;21.08;;;;;;;;;;5012807;28;20030;-84